createdAt,value
2017-02-04T00:00:10.475Z,924.18
2017-02-04T00:00:29.569Z,924.17
2017-02-04T00:00:48.698Z,924.18
2017-02-04T00:01:08.413Z,924.17
2017-02-04T00:01:28.171Z,924.15
2017-02-04T00:01:47.886Z,924.18
2017-02-04T00:02:07.611Z,924.19
2017-02-04T00:02:26.731Z,924.18
2017-02-04T00:02:46.455Z,924.18
2017-02-04T00:03:06.221Z,924.13
2017-02-04T00:03:26.026Z,924.21
2017-02-04T00:03:45.158Z,924.21
2017-02-04T00:04:04.889Z,924.25
2017-02-04T00:04:24.632Z,924.24
2017-02-04T00:04:44.413Z,924.24
2017-02-04T00:05:04.159Z,924.24
2017-02-04T00:05:23.250Z,924.21
2017-02-04T00:05:42.944Z,924.25
2017-02-04T00:06:02.655Z,924.21
2017-02-04T00:06:22.372Z,924.2
2017-02-04T00:06:42.087Z,924.24
2017-02-04T00:07:01.789Z,924.28
2017-02-04T00:07:21.515Z,924.3
2017-02-04T00:07:40.025Z,924.28
2017-02-04T00:07:59.748Z,924.28
2017-02-04T00:08:19.465Z,924.25
2017-02-04T00:08:39.215Z,924.29
2017-02-04T00:08:58.912Z,924.24
2017-02-04T00:09:18.643Z,924.27
2017-02-04T00:09:38.384Z,924.31
2017-02-04T00:09:58.111Z,924.31
2017-02-04T00:10:17.253Z,924.29
2017-02-04T00:10:36.986Z,924.33
2017-02-04T00:10:56.718Z,924.26
2017-02-04T00:11:16.450Z,924.23
2017-02-04T00:11:35.578Z,924.28
2017-02-04T00:11:55.273Z,924.29
2017-02-04T00:12:14.451Z,924.24
2017-02-04T00:12:33.527Z,924.24
2017-02-04T00:12:53.234Z,924.23
2017-02-04T00:13:12.945Z,924.3
2017-02-04T00:13:32.666Z,924.32
2017-02-04T00:13:52.389Z,924.32
2017-02-04T00:14:12.123Z,924.31
2017-02-04T00:14:31.882Z,924.32
2017-02-04T00:14:51.639Z,924.3
2017-02-04T00:15:25.270Z,924.29
2017-02-04T00:15:44.987Z,924.29
2017-02-04T00:16:04.707Z,924.3
2017-02-04T00:16:24.432Z,924.29
2017-02-04T00:16:44.113Z,924.27
2017-02-04T00:17:03.918Z,924.3
2017-02-04T00:17:23.245Z,924.3
2017-02-04T00:17:42.350Z,924.31
2017-02-04T00:18:02.036Z,924.3
2017-02-04T00:18:21.750Z,924.32
2017-02-04T00:18:40.922Z,924.3
2017-02-04T00:19:00.671Z,924.34
2017-02-04T00:19:20.375Z,924.32
2017-02-04T00:19:40.070Z,924.36
2017-02-04T00:19:59.810Z,924.43
2017-02-04T00:20:18.936Z,924.4
2017-02-04T00:20:38.640Z,924.42
2017-02-04T00:20:58.388Z,924.45
2017-02-04T00:21:18.130Z,924.43
2017-02-04T00:21:37.857Z,924.42
2017-02-04T00:21:57.536Z,924.42
2017-02-04T00:22:16.051Z,924.49
2017-02-04T00:22:35.767Z,924.43
2017-02-04T00:22:55.442Z,924.43
2017-02-04T00:23:15.181Z,924.45
2017-02-04T00:23:34.906Z,924.44
2017-02-04T00:23:54.031Z,924.49
2017-02-04T00:24:13.766Z,924.48
2017-02-04T00:24:33.495Z,924.48
2017-02-04T00:24:52.629Z,924.48
2017-02-04T00:25:12.356Z,924.5
2017-02-04T00:25:32.065Z,924.53
2017-02-04T00:25:52.036Z,924.54
2017-02-04T00:26:11.723Z,924.53
2017-02-04T00:26:31.444Z,924.55
2017-02-04T00:26:50.594Z,924.53
2017-02-04T00:27:10.301Z,924.57
2017-02-04T00:27:30.001Z,924.55
2017-02-04T00:27:49.728Z,924.56
2017-02-04T00:28:09.427Z,924.58
2017-02-04T00:28:29.141Z,924.57
2017-02-04T00:28:48.882Z,924.57
2017-02-04T00:29:08.001Z,924.58
2017-02-04T00:29:27.081Z,924.61
2017-02-04T00:29:46.203Z,924.62
2017-02-04T00:30:05.918Z,924.61
2017-02-04T00:30:25.614Z,924.66
2017-02-04T00:30:45.382Z,924.61
2017-02-04T00:31:05.110Z,924.64
2017-02-04T00:31:24.215Z,924.66
2017-02-04T00:31:43.949Z,924.62
2017-02-04T00:32:03.630Z,924.62
2017-02-04T00:32:22.751Z,924.62
2017-02-04T00:32:42.447Z,924.66
2017-02-04T00:33:02.178Z,924.62
2017-02-04T00:33:21.896Z,924.62
2017-02-04T00:33:41.817Z,924.67
2017-02-04T00:34:01.532Z,924.65
2017-02-04T00:34:20.677Z,924.61
2017-02-04T00:34:40.435Z,924.61
2017-02-04T00:35:00.164Z,924.64
2017-02-04T00:35:19.916Z,924.67
2017-02-04T00:35:39.039Z,924.65
2017-02-04T00:35:58.755Z,924.68
2017-02-04T00:36:17.851Z,924.64
2017-02-04T00:36:37.566Z,924.61
2017-02-04T00:36:57.263Z,924.59
2017-02-04T00:37:16.395Z,924.62
2017-02-04T00:37:36.110Z,924.63
2017-02-04T00:37:54.630Z,924.59
2017-02-04T00:38:14.347Z,924.62
2017-02-04T00:38:34.124Z,924.66
2017-02-04T00:38:53.824Z,924.64
2017-02-04T00:39:13.583Z,924.61
2017-02-04T00:39:33.334Z,924.66
2017-02-04T00:39:53.055Z,924.65
2017-02-04T00:40:12.384Z,924.7
2017-02-04T00:40:32.072Z,924.7
2017-02-04T00:40:51.806Z,924.66
2017-02-04T00:41:10.913Z,924.71
2017-02-04T00:41:30.597Z,924.7
2017-02-04T00:41:50.376Z,924.7
2017-02-04T00:42:10.111Z,924.71
2017-02-04T00:42:29.850Z,924.71
2017-02-04T00:42:49.589Z,924.7
2017-02-04T00:43:08.744Z,924.7
2017-02-04T00:43:28.486Z,924.7
2017-02-04T00:43:48.198Z,924.69
2017-02-04T00:44:07.906Z,924.73
2017-02-04T00:44:27.065Z,924.69
2017-02-04T00:44:46.833Z,924.69
2017-02-04T00:45:06.561Z,924.69
2017-02-04T00:45:26.330Z,924.7
2017-02-04T00:45:45.485Z,924.7
2017-02-04T00:46:05.246Z,924.72
2017-02-04T00:46:24.956Z,924.7
2017-02-04T00:46:44.701Z,924.71
2017-02-04T00:47:04.421Z,924.68
2017-02-04T00:47:24.123Z,924.7
2017-02-04T00:47:43.888Z,924.71
2017-02-04T00:48:03.623Z,924.72
2017-02-04T00:48:23.381Z,924.71
2017-02-04T00:48:43.166Z,924.65
2017-02-04T00:49:02.877Z,924.72
2017-02-04T00:49:22.615Z,924.73
2017-02-04T00:49:42.323Z,924.69
2017-02-04T00:50:01.465Z,924.7
2017-02-04T00:50:20.549Z,924.67
2017-02-04T00:50:40.283Z,924.69
2017-02-04T00:51:00.026Z,924.7
2017-02-04T00:51:19.125Z,924.68
2017-02-04T00:51:38.862Z,924.7
2017-02-04T00:51:58.549Z,924.7
2017-02-04T00:52:18.251Z,924.71
2017-02-04T00:52:37.976Z,924.71
2017-02-04T00:52:57.710Z,924.72
2017-02-04T00:53:17.420Z,924.71
2017-02-04T00:53:37.140Z,924.7
2017-02-04T00:53:56.855Z,924.74
2017-02-04T00:54:16.600Z,924.73
2017-02-04T00:54:36.296Z,924.74
2017-02-04T00:54:55.996Z,924.71
2017-02-04T00:55:14.790Z,924.73
2017-02-04T00:55:33.926Z,924.73
2017-02-04T00:55:53.622Z,924.76
2017-02-04T00:56:12.762Z,924.78
2017-02-04T00:56:32.500Z,924.74
2017-02-04T00:56:52.176Z,924.8
2017-02-04T00:57:11.922Z,924.8
2017-02-04T00:57:31.666Z,924.78
2017-02-04T00:57:50.753Z,924.8
2017-02-04T00:58:10.460Z,924.82
2017-02-04T00:58:30.167Z,924.79
2017-02-04T00:58:49.329Z,924.82
2017-02-04T00:59:09.023Z,924.9
2017-02-04T00:59:28.722Z,924.8
2017-02-04T00:59:48.442Z,924.84
2017-02-04T01:00:08.127Z,924.85
2017-02-04T01:00:26.632Z,924.81
2017-02-04T01:00:46.355Z,924.83
2017-02-04T01:01:06.045Z,924.85
2017-02-04T01:01:25.751Z,924.82
2017-02-04T01:01:45.489Z,924.8
2017-02-04T01:02:05.188Z,924.8
2017-02-04T01:02:22.541Z,924.81
2017-02-04T01:02:42.316Z,924.79
2017-02-04T01:03:02.050Z,924.79
2017-02-04T01:03:21.791Z,924.76
2017-02-04T01:03:41.495Z,924.74
2017-02-04T01:04:01.215Z,924.78
2017-02-04T01:04:20.916Z,924.77
2017-02-04T01:04:40.058Z,924.75
2017-02-04T01:04:59.727Z,924.76
2017-02-04T01:05:19.651Z,924.76
2017-02-04T01:05:39.388Z,924.72
2017-02-04T01:05:59.095Z,924.74
2017-02-04T01:06:18.822Z,924.75
2017-02-04T01:06:38.554Z,924.71
2017-02-04T01:06:58.253Z,924.72
2017-02-04T01:07:17.985Z,924.71
2017-02-04T01:07:37.681Z,924.72
2017-02-04T01:07:57.388Z,924.75
2017-02-04T01:08:17.076Z,924.73
2017-02-04T01:08:36.796Z,924.67
2017-02-04T01:08:56.715Z,924.68
2017-02-04T01:09:16.422Z,924.68
2017-02-04T01:09:35.532Z,924.7
2017-02-04T01:09:54.691Z,924.71
2017-02-04T01:10:14.410Z,924.7
2017-02-04T01:10:33.561Z,924.7
2017-02-04T01:10:53.307Z,924.72
2017-02-04T01:11:13.038Z,924.74
2017-02-04T01:11:32.755Z,924.7
2017-02-04T01:11:52.477Z,924.69
2017-02-04T01:12:12.197Z,924.69
2017-02-04T01:12:31.915Z,924.72
2017-02-04T01:12:51.650Z,924.72
2017-02-04T01:13:11.346Z,924.7
2017-02-04T01:13:31.049Z,924.72
2017-02-04T01:13:50.167Z,924.73
2017-02-04T01:14:09.893Z,924.73
2017-02-04T01:14:29.641Z,924.72
2017-02-04T01:14:48.784Z,924.74
2017-02-04T01:15:08.506Z,924.74
2017-02-04T01:15:27.622Z,924.75
2017-02-04T01:15:47.353Z,924.73
2017-02-04T01:16:07.072Z,924.72
2017-02-04T01:16:26.188Z,924.74
2017-02-04T01:16:45.903Z,924.76
2017-02-04T01:17:05.587Z,924.75
2017-02-04T01:17:25.315Z,924.75
2017-02-04T01:17:45.102Z,924.78
2017-02-04T01:18:05.013Z,924.72
2017-02-04T01:18:24.762Z,924.73
2017-02-04T01:18:44.468Z,924.75
2017-02-04T01:19:04.194Z,924.74
2017-02-04T01:19:23.897Z,924.77
2017-02-04T01:19:43.065Z,924.75
2017-02-04T01:20:02.775Z,924.72
2017-02-04T01:20:21.916Z,924.75
2017-02-04T01:20:41.037Z,924.75
2017-02-04T01:21:00.761Z,924.69
2017-02-04T01:21:20.521Z,924.72
2017-02-04T01:21:39.685Z,924.75
2017-02-04T01:21:59.389Z,924.71
2017-02-04T01:22:17.896Z,924.71
2017-02-04T01:22:37.599Z,924.7
2017-02-04T01:22:57.331Z,924.69
2017-02-04T01:23:17.031Z,924.72
2017-02-04T01:23:36.740Z,924.69
2017-02-04T01:23:56.458Z,924.68
2017-02-04T01:24:16.190Z,924.66
2017-02-04T01:24:35.911Z,924.64
2017-02-04T01:24:55.647Z,924.63
2017-02-04T01:25:14.750Z,924.65
2017-02-04T01:25:34.447Z,924.63
2017-02-04T01:25:54.123Z,924.62
2017-02-04T01:26:13.816Z,924.61
2017-02-04T01:26:33.513Z,924.58
2017-02-04T01:26:52.645Z,924.63
2017-02-04T01:27:12.370Z,924.59
2017-02-04T01:27:32.045Z,924.61
2017-02-04T01:27:50.531Z,924.61
2017-02-04T01:28:09.884Z,924.61
2017-02-04T01:28:29.591Z,924.58
2017-02-04T01:28:49.325Z,924.59
2017-02-04T01:29:09.044Z,924.56
2017-02-04T01:29:28.773Z,924.58
2017-02-04T01:29:48.477Z,924.56
2017-02-04T01:30:08.206Z,924.59
2017-02-04T01:30:27.970Z,924.59
2017-02-04T01:30:47.661Z,924.58
2017-02-04T01:31:07.402Z,924.55
2017-02-04T01:31:27.088Z,924.55
2017-02-04T01:31:46.828Z,924.55
2017-02-04T01:32:06.502Z,924.55
2017-02-04T01:32:26.488Z,924.52
2017-02-04T01:32:46.999Z,924.51
2017-02-04T01:33:06.667Z,924.52
2017-02-04T01:33:26.369Z,924.55
2017-02-04T01:33:46.074Z,924.51
2017-02-04T01:34:05.797Z,924.48
2017-02-04T01:34:25.510Z,924.52
2017-02-04T01:34:44.630Z,924.54
2017-02-04T01:35:04.300Z,924.49
2017-02-04T01:35:24.006Z,924.51
2017-02-04T01:35:43.131Z,924.5
2017-02-04T01:36:02.833Z,924.51
2017-02-04T01:36:22.533Z,924.53
2017-02-04T01:36:42.266Z,924.48
2017-02-04T01:37:01.995Z,924.46
2017-02-04T01:37:21.164Z,924.49
2017-02-04T01:37:40.279Z,924.53
2017-02-04T01:37:59.419Z,924.49
2017-02-04T01:38:19.137Z,924.45
2017-02-04T01:38:38.904Z,924.52
2017-02-04T01:38:58.632Z,924.48
2017-02-04T01:39:17.753Z,924.46
2017-02-04T01:39:37.477Z,924.45
2017-02-04T01:39:57.198Z,924.49
2017-02-04T01:40:16.902Z,924.45
2017-02-04T01:40:36.579Z,924.49
2017-02-04T01:40:56.288Z,924.47
2017-02-04T01:41:15.996Z,924.46
2017-02-04T01:41:35.726Z,924.46
2017-02-04T01:41:54.853Z,924.45
2017-02-04T01:42:14.572Z,924.47
2017-02-04T01:42:33.670Z,924.46
2017-02-04T01:42:53.384Z,924.48
2017-02-04T01:43:13.079Z,924.46
2017-02-04T01:43:32.813Z,924.45
2017-02-04T01:43:52.522Z,924.47
2017-02-04T01:44:12.250Z,924.47
2017-02-04T01:44:31.973Z,924.48
2017-02-04T01:44:51.697Z,924.47
2017-02-04T01:45:10.807Z,924.49
2017-02-04T01:45:30.527Z,924.46
2017-02-04T01:45:50.170Z,924.47
2017-02-04T01:46:09.899Z,924.48
2017-02-04T01:46:29.612Z,924.47
2017-02-04T01:46:48.732Z,924.5
2017-02-04T01:47:08.437Z,924.51
2017-02-04T01:47:28.125Z,924.5
2017-02-04T01:47:47.817Z,924.5
2017-02-04T01:48:07.497Z,924.51
2017-02-04T01:48:27.178Z,924.51
2017-02-04T01:48:46.277Z,924.51
2017-02-04T01:49:05.382Z,924.48
2017-02-04T01:49:25.104Z,924.47
2017-02-04T01:49:44.824Z,924.48
2017-02-04T01:50:04.543Z,924.48
2017-02-04T01:50:23.672Z,924.5
2017-02-04T01:50:43.366Z,924.51
2017-02-04T01:51:02.450Z,924.51
2017-02-04T01:51:22.167Z,924.52
2017-02-04T01:51:41.863Z,924.51
2017-02-04T01:52:01.614Z,924.49
2017-02-04T01:52:20.730Z,924.5
2017-02-04T01:52:39.834Z,924.49
2017-02-04T01:52:59.517Z,924.51
2017-02-04T01:53:19.196Z,924.48
2017-02-04T01:53:38.913Z,924.46
2017-02-04T01:53:58.625Z,924.47
2017-02-04T01:54:18.349Z,924.47
2017-02-04T01:54:38.066Z,924.45
2017-02-04T01:54:57.163Z,924.45
2017-02-04T01:55:16.868Z,924.42
2017-02-04T01:55:36.541Z,924.45
2017-02-04T01:55:56.324Z,924.44
2017-02-04T01:56:14.836Z,924.42
2017-02-04T01:56:34.595Z,924.43
2017-02-04T01:56:54.340Z,924.44
2017-02-04T01:57:12.873Z,924.39
2017-02-04T01:57:32.585Z,924.41
2017-02-04T01:57:52.351Z,924.39
2017-02-04T01:58:12.081Z,924.41
2017-02-04T01:58:31.782Z,924.39
2017-02-04T01:58:51.549Z,924.36
2017-02-04T01:59:11.259Z,924.4
2017-02-04T01:59:30.972Z,924.4
2017-02-04T01:59:50.682Z,924.37
2017-02-04T02:00:10.588Z,924.41
2017-02-04T02:00:30.969Z,924.44
2017-02-04T02:00:51.334Z,924.42
2017-02-04T02:01:11.743Z,924.38
2017-02-04T02:01:32.164Z,924.41
2017-02-04T02:01:52.561Z,924.41
2017-02-04T02:02:12.309Z,924.37
2017-02-04T02:02:32.691Z,924.41
2017-02-04T02:02:53.087Z,924.4
2017-02-04T02:03:13.462Z,924.42
2017-02-04T02:03:33.872Z,924.44
2017-02-04T02:03:54.289Z,924.41
2017-02-04T02:04:14.096Z,924.39
2017-02-04T02:04:34.524Z,924.41
2017-02-04T02:04:54.930Z,924.42
2017-02-04T02:05:14.684Z,924.43
2017-02-04T02:05:34.472Z,924.41
2017-02-04T02:05:54.871Z,924.42
2017-02-04T02:06:14.665Z,924.44
2017-02-04T02:06:35.074Z,924.44
2017-02-04T02:06:54.848Z,924.45
2017-02-04T02:07:14.609Z,924.44
2017-02-04T02:07:35.019Z,924.42
2017-02-04T02:07:54.771Z,924.44
2017-02-04T02:08:15.161Z,924.45
2017-02-04T02:08:35.589Z,924.46
2017-02-04T02:08:56.021Z,924.42
2017-02-04T02:09:16.425Z,924.44
2017-02-04T02:09:36.856Z,924.42
2017-02-04T02:09:57.233Z,924.45
2017-02-04T02:10:17.033Z,924.46
2017-02-04T02:10:36.778Z,924.45
2017-02-04T02:10:57.206Z,924.44
2017-02-04T02:11:17.603Z,924.43
2017-02-04T02:11:38.038Z,924.47
2017-02-04T02:11:58.455Z,924.44
2017-02-04T02:12:18.220Z,924.44
2017-02-04T02:12:38.636Z,924.49
2017-02-04T02:12:59.055Z,924.47
2017-02-04T02:13:19.442Z,924.46
2017-02-04T02:13:39.191Z,924.45
2017-02-04T02:13:59.637Z,924.51
2017-02-04T02:14:18.080Z,924.47
2017-02-04T02:14:38.485Z,924.47
2017-02-04T02:14:58.887Z,924.47
2017-02-04T02:15:19.278Z,924.43
2017-02-04T02:15:39.655Z,924.46
2017-02-04T02:16:00.038Z,924.47
2017-02-04T02:16:19.752Z,924.48
2017-02-04T02:16:40.141Z,924.5
2017-02-04T02:17:00.564Z,924.51
2017-02-04T02:17:20.305Z,924.53
2017-02-04T02:17:40.733Z,924.53
2017-02-04T02:18:01.132Z,924.55
2017-02-04T02:18:20.876Z,924.6
2017-02-04T02:18:41.296Z,924.6
2017-02-04T02:19:01.722Z,924.58
2017-02-04T02:19:22.088Z,924.6
2017-02-04T02:19:42.481Z,924.6
2017-02-04T02:20:02.898Z,924.6
2017-02-04T02:20:22.645Z,924.58
2017-02-04T02:20:43.253Z,924.58
2017-02-04T02:21:03.659Z,924.59
2017-02-04T02:21:24.097Z,924.56
2017-02-04T02:21:43.812Z,924.6
2017-02-04T02:22:04.251Z,924.61
2017-02-04T02:22:24.656Z,924.56
2017-02-04T02:22:45.096Z,924.59
2017-02-04T02:23:05.526Z,924.6
2017-02-04T02:23:25.912Z,924.59
2017-02-04T02:23:45.671Z,924.59
2017-02-04T02:24:06.082Z,924.59
2017-02-04T02:24:26.472Z,924.62
2017-02-04T02:24:46.876Z,924.61
2017-02-04T02:25:07.282Z,924.59
2017-02-04T02:25:27.682Z,924.6
2017-02-04T02:25:47.427Z,924.58
2017-02-04T02:26:07.821Z,924.58
2017-02-04T02:26:27.563Z,924.63
2017-02-04T02:26:47.991Z,924.62
2017-02-04T02:27:08.346Z,924.61
2017-02-04T02:27:28.757Z,924.63
2017-02-04T02:27:49.185Z,924.6
2017-02-04T02:28:09.589Z,924.58
2017-02-04T02:28:29.982Z,924.59
2017-02-04T02:28:50.370Z,924.57
2017-02-04T02:29:10.775Z,924.58
2017-02-04T02:29:31.181Z,924.58
2017-02-04T02:29:51.590Z,924.56
2017-02-04T02:30:11.963Z,924.55
2017-02-04T02:30:32.326Z,924.55
2017-02-04T02:30:52.710Z,924.55
2017-02-04T02:31:13.065Z,924.56
2017-02-04T02:31:32.802Z,924.49
2017-02-04T02:31:53.207Z,924.51
2017-02-04T02:32:13.586Z,924.53
2017-02-04T02:32:34.009Z,924.53
2017-02-04T02:32:54.422Z,924.56
2017-02-04T02:33:14.175Z,924.53
2017-02-04T02:33:34.598Z,924.55
2017-02-04T02:33:54.977Z,924.54
2017-02-04T02:34:14.735Z,924.54
2017-02-04T02:34:35.167Z,924.53
2017-02-04T02:34:55.540Z,924.5
2017-02-04T02:35:15.963Z,924.52
2017-02-04T02:35:36.368Z,924.53
2017-02-04T02:35:56.764Z,924.5
2017-02-04T02:36:16.541Z,924.5
2017-02-04T02:36:36.952Z,924.54
2017-02-04T02:36:57.336Z,924.45
2017-02-04T02:37:17.106Z,924.44
2017-02-04T02:37:37.562Z,924.48
2017-02-04T02:37:57.945Z,924.49
2017-02-04T02:38:18.328Z,924.48
2017-02-04T02:38:38.720Z,924.44
2017-02-04T02:38:57.820Z,924.48
2017-02-04T02:39:18.238Z,924.46
2017-02-04T02:39:38.629Z,924.48
2017-02-04T02:39:59.225Z,924.47
2017-02-04T02:40:19.819Z,924.45
2017-02-04T02:40:40.211Z,924.41
2017-02-04T02:40:59.997Z,924.42
2017-02-04T02:41:20.380Z,924.45
2017-02-04T02:41:40.789Z,924.41
2017-02-04T02:42:00.565Z,924.41
2017-02-04T02:42:20.966Z,924.39
2017-02-04T02:42:41.359Z,924.38
2017-02-04T02:43:01.780Z,924.36
2017-02-04T02:43:22.178Z,924.37
2017-02-04T02:43:42.579Z,924.34
2017-02-04T02:44:02.993Z,924.32
2017-02-04T02:44:22.752Z,924.35
2017-02-04T02:44:43.144Z,924.32
2017-02-04T02:45:03.580Z,924.31
2017-02-04T02:45:23.986Z,924.36
2017-02-04T02:45:43.750Z,924.31
2017-02-04T02:46:04.357Z,924.33
2017-02-04T02:46:24.758Z,924.33
2017-02-04T02:46:45.191Z,924.32
2017-02-04T02:47:05.629Z,924.32
2017-02-04T02:47:26.012Z,924.33
2017-02-04T02:47:46.435Z,924.35
2017-02-04T02:48:06.868Z,924.34
2017-02-04T02:48:27.283Z,924.33
2017-02-04T02:48:46.377Z,924.31
2017-02-04T02:49:06.796Z,924.35
2017-02-04T02:49:27.183Z,924.35
2017-02-04T02:49:47.597Z,924.33
2017-02-04T02:50:08.014Z,924.32
2017-02-04T02:50:28.452Z,924.34
2017-02-04T02:50:48.186Z,924.33
2017-02-04T02:51:08.575Z,924.32
2017-02-04T02:51:28.987Z,924.34
2017-02-04T02:51:49.411Z,924.32
2017-02-04T02:52:09.795Z,924.32
2017-02-04T02:52:30.206Z,924.33
2017-02-04T02:52:50.575Z,924.33
2017-02-04T02:53:11.003Z,924.35
2017-02-04T02:53:31.397Z,924.34
2017-02-04T02:53:51.812Z,924.34
2017-02-04T02:54:12.215Z,924.3
2017-02-04T02:54:32.581Z,924.33
2017-02-04T02:54:52.338Z,924.3
2017-02-04T02:55:12.749Z,924.3
2017-02-04T02:55:33.161Z,924.26
2017-02-04T02:55:53.553Z,924.29
2017-02-04T02:56:13.930Z,924.29
2017-02-04T02:56:34.340Z,924.31
2017-02-04T02:56:54.732Z,924.33
2017-02-04T02:57:15.130Z,924.33
2017-02-04T02:57:35.566Z,924.3
2017-02-04T02:57:55.951Z,924.31
2017-02-04T02:58:15.680Z,924.34
2017-02-04T02:58:36.066Z,924.32
2017-02-04T02:58:55.834Z,924.3
2017-02-04T02:59:16.271Z,924.36
2017-02-04T02:59:36.655Z,924.34
2017-02-04T02:59:57.058Z,924.32
2017-02-04T03:00:16.824Z,924.34
2017-02-04T03:00:37.228Z,924.3
2017-02-04T03:00:57.639Z,924.35
2017-02-04T03:01:18.063Z,924.35
2017-02-04T03:01:38.457Z,924.34
2017-02-04T03:01:58.879Z,924.37
2017-02-04T03:02:19.309Z,924.3
2017-02-04T03:02:39.727Z,924.33
2017-02-04T03:02:59.484Z,924.31
2017-02-04T03:03:19.906Z,924.29
2017-02-04T03:03:40.316Z,924.32
2017-02-04T03:04:00.688Z,924.31
2017-02-04T03:04:21.106Z,924.32
2017-02-04T03:04:41.499Z,924.3
2017-02-04T03:05:01.916Z,924.32
2017-02-04T03:05:22.343Z,924.36
2017-02-04T03:05:42.773Z,924.33
2017-02-04T03:06:01.872Z,924.32
2017-02-04T03:06:21.623Z,924.34
2017-02-04T03:06:41.996Z,924.32
2017-02-04T03:07:01.740Z,924.33
2017-02-04T03:07:21.471Z,924.34
2017-02-04T03:07:41.886Z,924.37
2017-02-04T03:08:01.659Z,924.32
2017-02-04T03:08:22.071Z,924.35
2017-02-04T03:08:42.419Z,924.33
2017-02-04T03:09:02.815Z,924.36
2017-02-04T03:09:23.199Z,924.32
2017-02-04T03:09:43.612Z,924.33
2017-02-04T03:10:04.003Z,924.33
2017-02-04T03:10:24.403Z,924.34
2017-02-04T03:10:44.825Z,924.34
2017-02-04T03:11:04.577Z,924.29
2017-02-04T03:11:24.972Z,924.33
2017-02-04T03:11:45.372Z,924.3
2017-02-04T03:12:05.780Z,924.27
2017-02-04T03:12:26.187Z,924.3
2017-02-04T03:12:46.577Z,924.23
2017-02-04T03:13:06.988Z,924.26
2017-02-04T03:13:27.388Z,924.25
2017-02-04T03:13:47.771Z,924.26
2017-02-04T03:14:07.523Z,924.21
2017-02-04T03:14:27.267Z,924.24
2017-02-04T03:14:47.032Z,924.19
2017-02-04T03:15:07.452Z,924.2
2017-02-04T03:15:27.875Z,924.18
2017-02-04T03:15:48.296Z,924.18
2017-02-04T03:16:08.709Z,924.19
2017-02-04T03:16:29.121Z,924.17
2017-02-04T03:16:49.571Z,924.15
2017-02-04T03:17:10.010Z,924.13
2017-02-04T03:17:30.423Z,924.15
2017-02-04T03:17:50.820Z,924.13
2017-02-04T03:18:11.243Z,924.15
2017-02-04T03:18:31.589Z,924.17
2017-02-04T03:18:52.001Z,924.17
2017-02-04T03:19:12.387Z,924.17
2017-02-04T03:19:32.787Z,924.14
2017-02-04T03:19:53.232Z,924.13
2017-02-04T03:20:13.021Z,924.09
2017-02-04T03:20:33.456Z,924.12
2017-02-04T03:20:53.215Z,924.11
2017-02-04T03:21:13.627Z,924.11
2017-02-04T03:21:34.026Z,924.11
2017-02-04T03:21:54.427Z,924.1
2017-02-04T03:22:14.811Z,924.1
2017-02-04T03:22:35.222Z,924.07
2017-02-04T03:22:54.988Z,924.08
2017-02-04T03:23:15.431Z,924.08
2017-02-04T03:23:35.816Z,924.07
2017-02-04T03:23:56.270Z,924.04
2017-02-04T03:24:16.689Z,924.02
2017-02-04T03:24:37.081Z,924.07
2017-02-04T03:24:57.482Z,924.07
2017-02-04T03:25:17.887Z,924.03
2017-02-04T03:25:38.279Z,924.06
2017-02-04T03:25:58.657Z,924.04
2017-02-04T03:26:18.431Z,924.05
2017-02-04T03:26:38.831Z,924.04
2017-02-04T03:26:59.227Z,924.04
2017-02-04T03:27:19.644Z,924.07
2017-02-04T03:27:40.023Z,924.05
2017-02-04T03:28:00.456Z,924.04
2017-02-04T03:28:20.853Z,924.04
2017-02-04T03:28:41.253Z,924.01
2017-02-04T03:29:01.650Z,924.01
2017-02-04T03:29:21.368Z,924.01
2017-02-04T03:29:41.152Z,923.99
2017-02-04T03:30:01.534Z,923.99
2017-02-04T03:30:21.922Z,924
2017-02-04T03:30:42.321Z,924.04
2017-02-04T03:31:02.736Z,924
2017-02-04T03:31:23.139Z,923.98
2017-02-04T03:31:43.533Z,923.99
2017-02-04T03:32:02.625Z,924.02
2017-02-04T03:32:23.019Z,924
2017-02-04T03:32:44.004Z,924.02
2017-02-04T03:33:04.368Z,923.95
2017-02-04T03:33:24.755Z,923.95
2017-02-04T03:33:45.148Z,923.94
2017-02-04T03:34:05.531Z,923.98
2017-02-04T03:34:25.936Z,923.93
2017-02-04T03:34:46.351Z,923.96
2017-02-04T03:35:06.745Z,923.97
2017-02-04T03:35:27.117Z,923.97
2017-02-04T03:35:47.714Z,923.95
2017-02-04T03:36:08.128Z,923.95
2017-02-04T03:36:27.912Z,923.95
2017-02-04T03:36:48.299Z,923.97
2017-02-04T03:37:08.680Z,923.96
2017-02-04T03:37:29.076Z,923.96
2017-02-04T03:37:49.502Z,923.95
2017-02-04T03:38:09.893Z,923.95
2017-02-04T03:38:30.288Z,923.94
2017-02-04T03:38:50.644Z,923.92
2017-02-04T03:39:11.025Z,923.92
2017-02-04T03:39:31.409Z,923.95
2017-02-04T03:39:51.804Z,923.92
2017-02-04T03:40:12.173Z,923.95
2017-02-04T03:40:32.563Z,923.93
2017-02-04T03:40:52.957Z,923.87
2017-02-04T03:41:13.383Z,923.91
2017-02-04T03:41:33.751Z,923.89
2017-02-04T03:41:54.168Z,923.84
2017-02-04T03:42:14.590Z,923.84
2017-02-04T03:42:34.337Z,923.81
2017-02-04T03:42:54.755Z,923.8
2017-02-04T03:43:15.157Z,923.78
2017-02-04T03:43:35.576Z,923.79
2017-02-04T03:43:55.956Z,923.79
2017-02-04T03:44:16.347Z,923.75
2017-02-04T03:44:36.083Z,923.7
2017-02-04T03:44:56.504Z,923.69
2017-02-04T03:45:16.912Z,923.71
2017-02-04T03:45:37.321Z,923.67
2017-02-04T03:45:57.704Z,923.65
2017-02-04T03:46:18.102Z,923.66
2017-02-04T03:46:38.519Z,923.66
2017-02-04T03:46:58.942Z,923.62
2017-02-04T03:47:18.711Z,923.61
2017-02-04T03:47:39.137Z,923.57
2017-02-04T03:47:59.509Z,923.57
2017-02-04T03:48:19.900Z,923.57
2017-02-04T03:48:40.293Z,923.54
2017-02-04T03:49:00.672Z,923.5
2017-02-04T03:49:21.104Z,923.52
2017-02-04T03:49:41.478Z,923.55
2017-02-04T03:50:01.892Z,923.51
2017-02-04T03:50:21.041Z,923.49
2017-02-04T03:50:40.847Z,923.48
2017-02-04T03:51:01.244Z,923.43
2017-02-04T03:51:21.631Z,923.46
2017-02-04T03:51:42.051Z,923.41
2017-02-04T03:52:01.830Z,923.45
2017-02-04T03:52:22.229Z,923.41
2017-02-04T03:52:42.626Z,923.41
2017-02-04T03:53:03.024Z,923.37
2017-02-04T03:53:23.414Z,923.41
2017-02-04T03:53:43.801Z,923.39
2017-02-04T03:54:03.557Z,923.39
2017-02-04T03:54:23.950Z,923.34
2017-02-04T03:54:44.344Z,923.36
2017-02-04T03:55:04.761Z,923.34
2017-02-04T03:55:24.482Z,923.34
2017-02-04T03:55:44.895Z,923.31
2017-02-04T03:56:05.293Z,923.26
2017-02-04T03:56:25.721Z,923.25
2017-02-04T03:56:46.108Z,923.29
2017-02-04T03:57:06.464Z,923.29
2017-02-04T03:57:26.238Z,923.31
2017-02-04T03:57:46.637Z,923.28
2017-02-04T03:58:07.013Z,923.31
2017-02-04T03:58:27.374Z,923.3
2017-02-04T03:58:47.111Z,923.31
2017-02-04T03:59:07.502Z,923.31
2017-02-04T03:59:27.223Z,923.32
2017-02-04T03:59:47.573Z,923.36
2017-02-04T04:00:07.989Z,923.32
2017-02-04T04:00:28.394Z,923.33
2017-02-04T04:00:48.771Z,923.32
2017-02-04T04:01:09.182Z,923.3
2017-02-04T04:01:29.602Z,923.33
2017-02-04T04:01:50.021Z,923.32
2017-02-04T04:02:10.463Z,923.31
2017-02-04T04:02:30.879Z,923.31
2017-02-04T04:02:50.639Z,923.33
2017-02-04T04:03:11.026Z,923.36
2017-02-04T04:03:31.411Z,923.33
2017-02-04T04:03:51.810Z,923.31
2017-02-04T04:04:12.202Z,923.36
2017-02-04T04:04:32.621Z,923.33
2017-02-04T04:04:53.039Z,923.3
2017-02-04T04:05:13.458Z,923.34
2017-02-04T04:05:33.846Z,923.34
2017-02-04T04:05:54.228Z,923.35
2017-02-04T04:06:14.651Z,923.32
2017-02-04T04:06:34.399Z,923.33
2017-02-04T04:06:54.168Z,923.32
2017-02-04T04:07:14.561Z,923.33
2017-02-04T04:07:34.326Z,923.36
2017-02-04T04:07:54.763Z,923.34
2017-02-04T04:08:15.154Z,923.3
2017-02-04T04:08:35.572Z,923.28
2017-02-04T04:08:55.994Z,923.31
2017-02-04T04:09:16.386Z,923.32
2017-02-04T04:09:36.799Z,923.29
2017-02-04T04:09:56.536Z,923.29